Data for 12/26/2015

Time Sea-Level Adjusted Pressure Absolute Pressure Temperature Relative Humidity Dew Point   
(mb) (inHg) (mb) (inHg) (C) (F) (%) (C) (F)
00:05 1023 30.21 852 25.16 -12.7 9.1 83 -15 5
00:10 1023 30.21 852 25.16 -12.9 8.9 84 -15.1 4.8
00:15 1023 30.21 852 25.16 -12.9 8.7 83 -15.3 4.5
00:20 1023 30.21 853 25.19 -13.1 8.4 83 -15.4 4.3
00:25 1023 30.21 853 25.19 -13.2 8.3 84 -15.4 4.3
00:30 1023 30.21 853 25.19 -13.2 8.3 83 -15.4 4.3
00:35 1023 30.21 853 25.19 -13.3 8.2 83 -15.5 4
00:40 1023 30.21 853 25.19 -13.3 8.1 83 -15.5 4.1
00:45 1024 30.24 853 25.19 -13.4 7.9 83 -15.8 3.6
00:50 1024 30.24 853 25.19 -13.6 7.4 83 -15.9 3.4
00:55 1024 30.24 853 25.19 -13.9 7 84 -16 3.1
01:00 1024 30.24 853 25.19 -13.9 6.9 84 -16.1 3
01:05 1024 30.24 853 25.19 -13.9 7 85 -15.9 3.4
01:10 1024 30.24 853 25.19 -13.8 7.2 87 -15.6 4
01:15 1024 30.24 853 25.19 -13.6 7.4 87 -15.3 4.4
01:20 1024 30.24 853 25.19 -13.5 7.7 89 -15 5
01:25 1023 30.21 853 25.19 -13.3 8.1 88 -14.9 5.2
01:30 1023 30.21 853 25.19 -13.2 8.3 88 -14.7 5.5
01:35 1023 30.21 853 25.19 -13.2 8.2 86 -15.1 4.8
01:40 1023 30.21 853 25.19 -13.4 7.9 86 -15.3 4.4
01:45 1024 30.24 853 25.19 -13.4 7.9 85 -15.4 4.4
01:50 1024 30.24 853 25.19 -13.3 8.1 85 -15.3 4.5
01:55 1024 30.24 853 25.19 -13.2 8.2 85 -15.2 4.7
02:00 1024 30.24 853 25.19 -13.1 8.3 86 -15 4.9
02:05 1024 30.24 853 25.19 -13.1 8.4 85 -15.1 4.8
02:10 1024 30.24 853 25.19 -13.2 8.3 85 -15.1 4.8
02:15 1024 30.24 853 25.19 -13 8.5 85 -15.1 4.9
02:20 1024 30.24 853 25.19 -12.9 8.7 84 -15.2 4.7
02:25 1024 30.24 853 25.19 -13 8.7 84 -15.2 4.7
02:30 1024 30.24 853 25.19 -12.9 8.8 84 -15.1 4.8
02:35 1024 30.24 853 25.19 -12.8 9 83 -15.1 4.9
02:40 1024 30.24 853 25.19 -12.6 9.2 83 -14.9 5.1
02:45 1024 30.24 853 25.19 -12.5 9.5 83 -14.8 5.3
02:50 1024 30.24 853 25.19 -12.3 9.8 83 -14.7 5.5
02:55 1024 30.24 853 25.19 -12.3 9.9 82 -14.8 5.4
03:00 1024 30.24 853 25.19 -12.3 9.9 81 -14.8 5.3
03:05 1024 30.24 853 25.19 -12.2 10 82 -14.7 5.5
03:10 1024 30.24 853 25.19 -12.1 10.2 82 -14.6 5.6
03:15 1024 30.24 853 25.19 -12 10.4 81 -14.6 5.6
03:20 1024 30.24 853 25.19 -12 10.4 81 -14.6 5.7
03:25 1024 30.24 854 25.22 -12 10.5 81 -14.6 5.8
03:30 1025 30.27 854 25.22 -11.9 10.6 81 -14.5 5.8
03:35 1025 30.27 854 25.22 -11.9 10.6 80 -14.7 5.6
03:40 1025 30.27 854 25.22 -12 10.4 80 -14.7 5.5
03:45 1025 30.27 854 25.22 -12.1 10.3 81 -14.7 5.5
03:50 1025 30.27 854 25.22 -12 10.3 80 -14.7 5.5
03:55 1025 30.27 854 25.22 -12 10.4 81 -14.6 5.7
04:00 1025 30.27 854 25.22 -12 10.4 80 -14.8 5.4
04:05 1025 30.27 854 25.22 -12.1 10.3 80 -14.8 5.3
04:10 1025 30.27 854 25.22 -12 10.3 81 -14.7 5.6
04:15 1025 30.27 855 25.25 -12.1 10.3 81 -14.7 5.6
04:20 1025 30.27 855 25.25 -12.1 10.3 81 -14.7 5.6
04:25 1025 30.27 855 25.25 -12 10.3 81 -14.6 5.7
04:30 1025 30.27 855 25.25 -12.1 10.3 81 -14.7 5.5
04:35 1025 30.27 855 25.25 -12.1 10.2 81 -14.8 5.4
04:40 1025 30.27 855 25.25 -12.1 10.2 81 -14.8 5.4
04:45 1026 30.3 855 25.25 -12.1 10.2 81 -14.8 5.4
04:50 1026 30.3 855 25.25 -12.1 10.2 81 -14.7 5.6
04:55 1026 30.3 855 25.25 -12 10.5 82 -14.5 5.9
05:00 1026 30.3 855 25.25 -11.9 10.6 81 -14.6 5.8
05:05 1026 30.3 855 25.25 -11.8 10.7 81 -14.4 6.1
05:10 1026 30.3 855 25.25 -11.8 10.8 81 -14.3 6.2
05:15 1026 30.3 855 25.25 -11.8 10.8 82 -14.3 6.3
05:20 1026 30.3 855 25.25 -11.8 10.7 82 -14.2 6.4
05:25 1026 30.3 855 25.25 -11.8 10.7 83 -14.2 6.4
05:30 1026 30.3 855 25.25 -11.9 10.6 82 -14.4 6.1
05:35 1026 30.3 855 25.25 -11.9 10.5 81 -14.6 5.8
05:40 1026 30.3 855 25.25 -11.9 10.6 81 -14.5 5.9
05:45 1026 30.3 855 25.25 -11.9 10.6 81 -14.5 5.9
05:50 1026 30.3 855 25.25 -11.9 10.6 82 -14.4 6.1
05:55 1026 30.3 855 25.25 -11.9 10.7 82 -14.4 6.1
06:00 1026 30.3 855 25.25 -11.9 10.6 82 -14.4 6.1
06:05 1026 30.3 855 25.25 -11.9 10.7 82 -14.3 6.2
06:10 1026 30.3 856 25.28 -11.8 10.8 81 -14.4 6.1
06:15 1027 30.33 856 25.28 -11.7 10.9 82 -14.2 6.4
06:20 1027 30.33 856 25.28 -11.6 11 82 -14.2 6.5
06:25 1027 30.33 856 25.28 -11.6 11 82 -14.2 6.5
06:30 1027 30.33 856 25.28 -11.7 10.9 82 -14.1 6.5
06:35 1027 30.33 856 25.28 -11.8 10.7 83 -14.2 6.4
06:40 1027 30.33 856 25.28 -12 10.5 83 -14.2 6.4
06:45 1027 30.33 856 25.28 -12 10.3 84 -14.2 6.4
06:50 1027 30.33 856 25.28 -12.2 10.1 84 -14.4 6.1
06:55 1027 30.33 856 25.28 -12.3 9.9 85 -14.4 6.1
07:00 1027 30.33 856 25.28 -12.4 9.7 85 -14.5 6
07:05 1027 30.33 856 25.28 -12.5 9.5 85 -14.5 6
07:10 1027 30.33 856 25.28 -12.5 9.6 85 -14.5 5.9
07:15 1027 30.33 857 25.31 -12.4 9.6 85 -14.5 6
07:20 1027 30.33 857 25.31 -12.3 9.8 85 -14.4 6.1
07:25 1027 30.33 857 25.31 -12.2 10 86 -14.1 6.6
07:30 1027 30.33 857 25.31 -12.2 10 85 -14.3 6.3
07:35 1027 30.33 857 25.31 -12.4 9.7 86 -14.3 6.3
07:40 1027 30.33 857 25.31 -12.3 9.8 86 -14.2 6.4
07:45 1027 30.33 857 25.31 -12.2 10 86 -14.1 6.5
07:50 1027 30.33 857 25.31 -12.3 9.9 86 -14.2 6.5
07:55 1027 30.33 857 25.31 -12.4 9.7 86 -14.2 6.4
08:00 1027 30.33 857 25.31 -12.4 9.7 84 -14.6 5.7
08:05 1028 30.36 857 25.31 -12.6 9.3 83 -14.9 5.2
08:10 1028 30.36 857 25.31 -12.7 9.1 84 -15 5.1
08:15 1028 30.36 857 25.31 -12.8 9 84 -14.9 5.1
08:20 1028 30.36 857 25.31 -12.9 8.8 85 -15 5.1
08:25 1028 30.36 857 25.31 -12.9 8.8 85 -15 5.1
08:30 1028 30.36 857 25.31 -12.9 8.8 85 -14.9 5.2
08:35 1028 30.36 857 25.31 -12.8 9 85 -14.7 5.5
08:40 1028 30.36 857 25.31 -12.5 9.5 85 -14.6 5.8
08:45 1028 30.36 857 25.31 -12.3 9.8 84 -14.5 5.9
08:50 1028 30.36 857 25.31 -12.2 10 84 -14.4 6.1
08:55 1028 30.36 857 25.31 -12.2 10.1 84 -14.4 6.2
09:00 1028 30.36 857 25.31 -12.1 10.3 84 -14.3 6.3
09:05 1028 30.36 857 25.31 -12.1 10.3 83 -14.3 6.2
09:10 1028 30.36 857 25.31 -12.2 10 83 -14.5 5.9
09:15 1028 30.36 857 25.31 -12.3 9.8 83 -14.7 5.6
09:20 1028 30.36 858 25.34 -12.6 9.3 85 -14.7 5.6
09:25 1028 30.36 858 25.34 -12.8 8.9 85 -14.8 5.3
09:30 1028 30.36 858 25.34 -12.8 9 86 -14.7 5.6
09:35 1029 30.39 858 25.34 -12.7 9.2 86 -14.5 5.9
09:40 1029 30.39 858 25.34 -12.3 9.8 84 -14.5 6
09:45 1029 30.39 858 25.34 -12.3 9.9 84 -14.5 5.9
09:50 1029 30.39 858 25.34 -12.3 9.9 85 -14.4 6.2
09:55 1029 30.39 858 25.34 -12.1 10.3 85 -14 6.7
10:00 1029 30.39 858 25.34 -12 10.4 86 -14 6.9
10:05 1029 30.39 858 25.34 -11.9 10.7 83 -14.1 6.6
10:10 1029 30.39 858 25.34 -11.9 10.6 84 -14.1 6.6
10:15 1029 30.39 858 25.34 -11.8 10.8 83 -14.1 6.6
10:20 1029 30.39 858 25.34 -11.4 11.5 82 -13.9 7
10:25 1029 30.39 858 25.34 -10.7 12.7 78 -13.8 7.1
10:30 1029 30.39 858 25.34 -10.1 13.7 75 -13.7 7.3
10:35 1029 30.39 858 25.34 -9.6 14.7 71 -13.8 7.1
10:40 1029 30.39 858 25.34 -9.7 14.5 71 -14 6.7
10:45 1029 30.39 858 25.34 -9.7 14.6 70 -14.1 6.6
10:50 1029 30.39 858 25.34 -9.5 15 69 -14.2 6.5
10:55 1029 30.39 858 25.34 -9.7 14.5 70 -14.3 6.2
11:00 1029 30.39 859 25.37 -9.9 14.2 70 -14.3 6.3
11:05 1029 30.39 859 25.37 -9.9 14.2 71 -14.3 6.3
11:10 1029 30.39 859 25.37 -9.4 15.1 69 -14.1 6.6
11:15 1030 30.42 859 25.37 -9.2 15.5 68 -14.1 6.6
11:20 1030 30.42 859 25.37 -9.1 15.5 68 -14.1 6.7
11:25 1030 30.42 859 25.37 -8.5 16.7 67 -13.6 7.5
11:30 1030 30.42 859 25.37 -7.9 17.7 65 -13.4 7.8
11:35 1030 30.42 859 25.37 -7.5 18.6 63 -13.3 8.1
11:40 1030 30.42 859 25.37 -7.6 18.4 64 -13.3 8
11:45 1030 30.42 859 25.37 -7.1 19.2 62 -13.3 8
11:50 1030 30.42 859 25.37 -6.9 19.6 61 -13.2 8.3
11:55 1030 30.42 859 25.37 -6.8 19.8 60 -13.2 8.2
12:00 1030 30.42 859 25.37 -7 19.4 62 -13.2 8.2
12:05 1030 30.42 859 25.37 -7.5 18.5 63 -13.4 7.8
12:10 1030 30.42 859 25.37 -7.8 17.9 63 -13.7 7.3
12:15 1030 30.42 859 25.37 -7.6 18.2 62 -13.6 7.4
12:20 1030 30.42 859 25.37 -7.7 18.2 61 -13.9 7
12:25 1030 30.42 859 25.37 -7.6 18.2 60 -14.1 6.7
12:30 1030 30.42 859 25.37 -7.4 18.6 61 -13.8 7.2
12:35 1030 30.42 859 25.37 -7.1 19.2 59 -13.9 7
12:40 1030 30.42 859 25.37 -7.3 18.9 61 -13.6 7.5
12:45 1030 30.42 859 25.37 -6.9 19.7 58 -13.8 7.2
12:50 1030 30.42 859 25.37 -6.8 19.8 59 -13.5 7.8
12:55 1030 30.42 859 25.37 -6.6 20.1 57 -13.7 7.3
13:00 1030 30.42 859 25.37 -6 21.3 55 -13.7 7.4
13:05 1030 30.42 859 25.37 -5.9 21.4 54 -13.7 7.4
13:10 1030 30.42 859 25.37 -5.7 21.7 53 -13.7 7.3
13:15 1030 30.42 859 25.37 -5.5 22 54 -13.4 7.8
13:20 1030 30.42 859 25.37 -5.6 21.9 55 -13.4 7.9
13:25 1030 30.42 859 25.37 -6.2 20.9 55 -13.9 7
13:30 1030 30.42 859 25.37 -6.5 20.2 56 -13.9 7.1
13:35 1030 30.42 859 25.37 -6.9 19.6 58 -13.8 7.1
13:40 1029 30.39 859 25.37 -7.5 18.4 62 -13.5 7.6
13:45 1029 30.39 859 25.37 -7.6 18.2 61 -14 6.8
13:50 1029 30.39 859 25.37 -7.2 19 60 -13.7 7.4
13:55 1029 30.39 858 25.34 -7.2 19.1 58 -14.1 6.7
14:00 1029 30.39 858 25.34 -6.4 20.4 56 -13.8 7.2
14:05 1029 30.39 858 25.34 -6.5 20.3 57 -13.6 7.5
14:10 1029 30.39 858 25.34 -5.9 21.4 55 -13.6 7.5
14:15 1029 30.39 858 25.34 -6.8 19.8 59 -13.4 7.8
14:20 1029 30.39 858 25.34 -7 19.3 59 -13.7 7.3
14:25 1029 30.39 858 25.34 -6.7 19.9 58 -13.7 7.4
14:30 1029 30.39 858 25.34 -6.4 20.6 56 -13.8 7.1
14:35 1029 30.39 858 25.34 -6 21.2 56 -13.3 8
14:40 1029 30.39 858 25.34 -5.9 21.4 56 -13.4 7.9
14:45 1029 30.39 858 25.34 -6.1 21 57 -13.3 8
14:50 1029 30.39 858 25.34 -6 21.3 56 -13.5 7.7
14:55 1029 30.39 858 25.34 -6 21.2 57 -13.3 8.1
15:00 1029 30.39 858 25.34 -6.2 20.9 57 -13.3 8.1
15:05 1029 30.39 858 25.34 -6.6 20.1 58 -13.6 7.6
15:10 1029 30.39 858 25.34 -6.3 20.7 57 -13.4 7.9
15:15 1029 30.39 858 25.34 -6.5 20.4 59 -13.2 8.3
15:20 1029 30.39 858 25.34 -7.2 19 62 -13.3 8.1
15:25 1029 30.39 859 25.37 -7.3 18.8 62 -13.4 7.8
15:30 1029 30.39 859 25.37 -7.7 18.2 62 -13.8 7.2
15:35 1029 30.39 859 25.37 -7.3 18.8 61 -13.5 7.6
15:40 1029 30.39 859 25.37 -7.2 19 61 -13.5 7.6
15:45 1029 30.39 859 25.37 -7.3 18.9 61 -13.6 7.5
15:50 1029 30.39 859 25.37 -7.2 19 61 -13.5 7.7
15:55 1030 30.42 859 25.37 -7.3 18.8 61 -13.6 7.5
16:00 1029 30.39 859 25.37 -7.4 18.6 62 -13.5 7.8
16:05 1029 30.39 859 25.37 -7.4 18.7 62 -13.5 7.7
16:10 1029 30.39 859 25.37 -7.1 19.2 61 -13.5 7.7
16:15 1030 30.42 859 25.37 -7.4 18.6 62 -13.6 7.5
16:20 1030 30.42 859 25.37 -8.1 17.5 64 -13.7 7.4
16:25 1030 30.42 859 25.37 -8.1 17.4 62 -14.1 6.6
16:30 1030 30.42 859 25.37 -7.2 19 57 -14.4 6
16:35 1030 30.42 859 25.37 -6.7 20 55 -14.4 6.1
16:40 1030 30.42 859 25.37 -6.4 20.5 55 -14 6.8
16:45 1030 30.42 859 25.37 -6.7 19.9 55 -14.3 6.3
16:50 1030 30.42 859 25.37 -7.1 19.3 56 -14.5 5.9
16:55 1030 30.42 859 25.37 -6.6 20.1 52 -14.9 5.2
17:00 1030 30.42 859 25.37 -6.5 20.2 52 -14.8 5.4
17:05 1030 30.42 859 25.37 -6.9 19.6 53 -15 4.9
17:10 1030 30.42 859 25.37 -6.9 19.6 53 -14.9 5.3
17:15 1030 30.42 859 25.37 -7.2 19 53 -15.2 4.7
17:20 1030 30.42 859 25.37 -6.9 19.5 52 -15.1 4.7
17:25 1030 30.42 859 25.37 -6.8 19.8 52 -15.1 4.9
17:30 1030 30.42 859 25.37 -6.7 19.9 52 -15.1 4.8
17:35 1030 30.42 859 25.37 -7 19.4 53 -15 4.9
17:40 1030 30.42 859 25.37 -7.6 18.3 55 -15.1 4.8
17:45 1030 30.42 859 25.37 -8.5 16.7 59 -15 4.9
17:50 1030 30.42 859 25.37 -9 15.9 62 -15 5
17:55 1030 30.42 859 25.37 -9.3 15.3 64 -15 5
18:00 1030 30.42 859 25.37 -9.4 15 67 -14.5 5.9
18:05 1030 30.42 859 25.37 -9.6 14.7 65 -14.9 5.1
18:10 1030 30.42 859 25.37 -10 13.9 68 -14.8 5.3
18:15 1030 30.42 859 25.37 -10.6 13 67 -15.6 4
18:20 1030 30.42 859 25.37 -10.6 12.9 70 -15 5
18:25 1030 30.42 859 25.37 -10.6 12.9 68 -15.4 4.3
18:30 1030 30.42 859 25.37 -10.5 13.1 68 -15.3 4.5
18:35 1030 30.42 859 25.37 -10.5 13.2 68 -15.3 4.4
18:40 1029 30.39 859 25.37 -10.6 12.8 67 -15.6 3.9
18:45 1029 30.39 859 25.37 -10.8 12.6 69 -15.5 4.1
18:50 1029 30.39 859 25.37 -10.6 13 71 -14.8 5.3
18:55 1030 30.42 859 25.37 -10.3 13.4 68 -15.3 4.5
19:00 1030 30.42 859 25.37 -10.5 13.1 67 -15.5 4.1
19:05 1030 30.42 859 25.37 -10.6 12.8 68 -15.4 4.3
19:10 1030 30.42 859 25.37 -10.8 12.5 68 -15.7 3.8
19:15 1030 30.42 859 25.37 -10.8 12.7 68 -15.5 4
19:20 1030 30.42 859 25.37 -10.9 12.5 68 -15.6 3.9
19:25 1030 30.42 859 25.37 -11 12.1 69 -15.6 3.9
19:30 1030 30.42 859 25.37 -11.2 11.8 70 -15.7 3.7
19:35 1030 30.42 859 25.37 -11.2 11.8 70 -15.7 3.7
19:40 1030 30.42 859 25.37 -11.4 11.6 70 -15.9 3.4
19:45 1030 30.42 859 25.37 -11.5 11.3 70 -16 3.2
19:50 1030 30.42 859 25.37 -11.6 11.1 71 -15.9 3.3
19:55 1030 30.42 859 25.37 -11.6 11.1 70 -16 3.3
20:00 1030 30.42 859 25.37 -11.5 11.2 70 -16 3.2
20:05 1030 30.42 859 25.37 -11.6 11.2 70 -16.1 3.1
20:10 1030 30.42 859 25.37 -11.7 10.9 70 -16.1 3.1
20:15 1030 30.42 859 25.37 -11.8 10.8 70 -16.2 2.9
20:20 1030 30.42 859 25.37 -12 10.5 71 -16.2 2.8
20:25 1030 30.42 859 25.37 -12.3 9.9 72 -16.3 2.6
20:30 1030 30.42 859 25.37 -12.5 9.5 73 -16.4 2.5
20:35 1030 30.42 859 25.37 -12.5 9.4 73 -16.4 2.4
20:40 1030 30.42 859 25.37 -12.7 9.2 73 -16.5 2.4
20:45 1030 30.42 859 25.37 -12.6 9.3 72 -16.6 2.1
20:50 1029 30.39 859 25.37 -12.6 9.4 73 -16.5 2.3
20:55 1029 30.39 859 25.37 -12.5 9.5 72 -16.5 2.4
21:00 1029 30.39 859 25.37 -12.3 9.8 72 -16.4 2.4
21:05 1029 30.39 859 25.37 -12.3 9.8 72 -16.4 2.5
21:10 1029 30.39 859 25.37 -12.5 9.6 72 -16.5 2.4
21:15 1029 30.39 859 25.37 -12.6 9.3 73 -16.5 2.2
21:20 1029 30.39 858 25.34 -12.5 9.6 72 -16.6 2.1
21:25 1029 30.39 858 25.34 -12.4 9.7 71 -16.5 2.2
21:30 1029 30.39 858 25.34 -12.5 9.4 73 -16.5 2.4
21:35 1029 30.39 858 25.34 -12.6 9.3 69 -17.1 1.2
21:40 1029 30.39 858 25.34 -12.6 9.4 70 -16.9 1.5
21:45 1029 30.39 858 25.34 -12.5 9.6 68 -17.2 1
21:50 1029 30.39 858 25.34 -12.5 9.6 69 -17.1 1.2
21:55 1029 30.39 858 25.34 -12.6 9.3 70 -17.1 1.3
22:00 1029 30.39 858 25.34 -12.6 9.3 71 -16.9 1.6
22:05 1029 30.39 858 25.34 -12.6 9.3 71 -16.8 1.7
22:10 1029 30.39 858 25.34 -12.5 9.5 71 -16.8 1.8
22:15 1029 30.39 858 25.34 -12.3 9.9 69 -16.8 1.8
22:20 1029 30.39 858 25.34 -12.3 9.9 71 -16.5 2.2
22:25 1029 30.39 858 25.34 -12.3 9.9 70 -16.7 1.9
22:30 1029 30.39 858 25.34 -12.7 9.2 72 -16.8 1.7
22:35 1029 30.39 858 25.34 -13.4 8 74 -17.1 1.2
22:40 1029 30.39 858 25.34 -13.6 7.5 74 -17.3 0.8
22:45 1029 30.39 858 25.34 -13.7 7.4 74 -17.3 0.8
22:50 1029 30.39 858 25.34 -13.8 7.2 74 -17.4 0.6
22:55 1029 30.39 858 25.34 -13.4 7.9 72 -17.4 0.6
23:00 1029 30.39 858 25.34 -13.3 8.2 74 -17 1.3
23:05 1029 30.39 858 25.34 -12.9 8.8 71 -17.1 1.2
23:10 1029 30.39 858 25.34 -12.4 9.7 69 -16.9 1.6
23:15 1029 30.39 858 25.34 -12.6 9.4 68 -17.3 0.8
23:20 1029 30.39 858 25.34 -13.2 8.2 70 -17.7 0.2
23:25 1029 30.39 858 25.34 -13.8 7.1 73 -17.7 0.1
23:30 1029 30.39 858 25.34 -13.8 7.2 72 -17.8 0
23:35 1029 30.39 858 25.34 -13.3 8 70 -17.8 0
23:40 1029 30.39 858 25.34 -13 8.6 69 -17.6 0.3
23:45 1029 30.39 858 25.34 -12.9 8.7 69 -17.5 0.5
23:50 1029 30.39 858 25.34 -13.1 8.5 70 -17.4 0.7
23:55 1029 30.39 858 25.34 -13.6 7.5 72 -17.7 0.2
24:00 1029 30.39 858 25.34 -14.3 6.4 74 -17.9 -0.2